createdAt,value
2022-12-23T00:01:01.502Z,97496.66
2022-12-23T00:04:08.745Z,97515.91
2022-12-23T00:07:15.423Z,97505.19
2022-12-23T00:10:21.429Z,97502.44
2022-12-23T00:13:43.000Z,97510.25
2022-12-23T00:16:51.904Z,97513.97
2022-12-23T00:19:58.587Z,97514.47
2022-12-23T00:23:10.404Z,97505.84
2022-12-23T00:26:20.470Z,97512.25
2022-12-23T00:29:26.493Z,97524.94
2022-12-23T00:32:35.830Z,97514.88
2022-12-23T00:35:41.531Z,97506.88
2022-12-23T00:39:01.023Z,97512.25
2022-12-23T00:42:19.320Z,97525.16
2022-12-23T00:45:26.097Z,97530.81
2022-12-23T00:48:47.055Z,97527.09
2022-12-23T00:51:53.621Z,97512.91
2022-12-23T00:54:59.428Z,97508.72
2022-12-23T00:58:06.206Z,97509.38
2022-12-23T01:01:24.437Z,97507.88
2022-12-23T01:04:45.954Z,97520.09
2022-12-23T01:07:51.887Z,97523.84
2022-12-23T01:10:58.799Z,97514.91
2022-12-23T01:14:04.819Z,97502.19
2022-12-23T01:17:11.993Z,97507.88
2022-12-23T01:20:20.681Z,97511.28
2022-12-23T01:23:27.270Z,97505.09
2022-12-23T01:26:33.113Z,97514.34
2022-12-23T01:29:39.843Z,97502.44
2022-12-23T01:32:45.726Z,97520.00
2022-12-23T01:35:54.923Z,97515.44
2022-12-23T01:39:00.762Z,97507.09
2022-12-23T01:42:21.910Z,97516.38
2022-12-23T01:53:34.632Z,97480.63
2022-12-23T02:00:47.550Z,97460.44
2022-12-23T02:04:01.648Z,97484.84
2022-12-23T02:07:23.422Z,97545.28
2022-12-23T02:11:06.440Z,97481.38
2022-12-23T02:14:48.698Z,97534.22
2022-12-23T02:18:16.098Z,97549.03
2022-12-23T02:22:08.223Z,97532.00
2022-12-23T02:25:57.727Z,97476.59
2022-12-23T02:29:46.653Z,97500.44
2022-12-23T02:33:23.543Z,97485.91
2022-12-23T02:36:48.248Z,97504.19
2022-12-23T02:40:07.952Z,97540.72
2022-12-23T02:43:29.943Z,97538.28
2022-12-23T02:46:45.395Z,97512.97
2022-12-23T02:50:05.648Z,97539.28
2022-12-23T02:53:21.912Z,97518.28
2022-12-23T02:56:35.350Z,97504.59
2022-12-23T02:59:51.828Z,97531.53
2022-12-23T03:02:59.475Z,97464.34
2022-12-23T03:06:24.037Z,97462.88
2022-12-23T03:09:49.924Z,97488.59
2022-12-23T03:13:20.045Z,97487.84
2022-12-23T03:16:34.913Z,97531.13
2022-12-23T03:19:54.740Z,97519.44
2022-12-23T03:23:18.859Z,97511.91
2022-12-23T03:26:42.068Z,97462.19
2022-12-23T03:30:04.044Z,97510.34
2022-12-23T03:33:18.957Z,97513.75
2022-12-23T03:36:34.763Z,97481.50
2022-12-23T03:39:52.501Z,97493.25
2022-12-23T03:43:07.720Z,97518.53
2022-12-23T03:46:23.106Z,97509.41
2022-12-23T03:49:38.897Z,97471.63
2022-12-23T03:52:54.815Z,97484.53
2022-12-23T03:56:13.367Z,97518.78
2022-12-23T03:59:27.165Z,97515.38
2022-12-23T04:02:55.324Z,97453.13
2022-12-23T04:06:08.823Z,97512.78
2022-12-23T04:09:22.232Z,97519.59
2022-12-23T04:12:33.512Z,97510.78
2022-12-23T04:15:44.892Z,97511.22
2022-12-23T04:18:50.771Z,97498.31
2022-12-23T04:21:59.968Z,97504.78
2022-12-23T04:25:19.134Z,97492.59
2022-12-23T04:28:28.286Z,97502.03
2022-12-23T04:31:34.383Z,97486.72
2022-12-23T04:34:40.919Z,97486.78
2022-12-23T04:37:46.616Z,97483.53
2022-12-23T04:40:53.282Z,97483.53
2022-12-23T04:44:01.705Z,97481.56
2022-12-23T04:47:11.243Z,97473.25
2022-12-23T04:50:20.688Z,97466.91
2022-12-23T04:53:27.258Z,97451.06
2022-12-23T04:56:33.137Z,97463.97
2022-12-23T04:59:42.417Z,97424.69
2022-12-23T05:02:48.372Z,97479.41
2022-12-23T05:05:55.061Z,97476.03
2022-12-23T05:09:00.812Z,97467.94
2022-12-23T05:12:10.824Z,97469.41
2022-12-23T05:15:19.327Z,97471.06
2022-12-23T05:18:27.772Z,97471.25
2022-12-23T05:21:33.763Z,97473.03
2022-12-23T05:24:40.332Z,97477.25
2022-12-23T05:27:46.459Z,97474.66
2022-12-23T05:31:02.053Z,97467.97
2022-12-23T05:34:10.946Z,97473.03
2022-12-23T05:37:17.589Z,97468.94
2022-12-23T05:40:25.729Z,97466.97
2022-12-23T05:43:38.491Z,97466.53
2022-12-23T05:46:46.841Z,97465.88
2022-12-23T05:49:53.365Z,97470.41
2022-12-23T05:53:00.142Z,97467.13
2022-12-23T05:56:09.021Z,97469.41
2022-12-23T05:59:15.062Z,97467.63
2022-12-23T06:02:24.966Z,97466.19
2022-12-23T06:05:31.485Z,97469.59
2022-12-23T06:08:38.307Z,97456.91
2022-12-23T06:11:44.110Z,97474.78
2022-12-23T06:14:53.179Z,97473.34
2022-12-23T06:18:01.949Z,97469.88
2022-12-23T06:21:11.501Z,97459.28
2022-12-23T06:24:17.307Z,97475.91
2022-12-23T06:27:24.103Z,97464.84
2022-12-23T06:30:29.938Z,97469.88
2022-12-23T06:33:39.237Z,97465.66
2022-12-23T06:36:45.052Z,97466.28
2022-12-23T06:39:51.674Z,97462.38
2022-12-23T06:42:57.588Z,97466.94
2022-12-23T06:46:04.274Z,97458.19
2022-12-23T06:49:15.028Z,97460.00
2022-12-23T06:52:23.163Z,97467.81
2022-12-23T06:55:32.662Z,97470.72
2022-12-23T06:58:40.629Z,97460.97
2022-12-23T07:01:49.384Z,97463.72
2022-12-23T07:04:58.631Z,97457.22
2022-12-23T07:08:04.488Z,97475.00
2022-12-23T07:11:11.411Z,97475.97
2022-12-23T07:14:17.729Z,97478.09
2022-12-23T07:17:24.387Z,97462.47
2022-12-23T07:20:32.789Z,97472.22
2022-12-23T07:23:39.558Z,97472.88
2022-12-23T07:26:45.367Z,97471.25
2022-12-23T07:29:52.067Z,97480.34
2022-12-23T07:32:57.849Z,97483.13
2022-12-23T07:36:07.826Z,97477.75
2022-12-23T07:39:14.429Z,97481.66
2022-12-23T07:42:50.937Z,97479.41
2022-12-23T07:45:46.873Z,97482.78
2022-12-23T07:48:53.508Z,97488.34
2022-12-23T07:52:01.841Z,97484.06
2022-12-23T07:55:10.097Z,97480.84
2022-12-23T07:58:15.884Z,97472.00
2022-12-23T08:01:24.186Z,97486.22
2022-12-23T08:04:30.607Z,97476.59
2022-12-23T08:07:40.187Z,97475.78
2022-12-23T08:10:48.566Z,97469.75
2022-12-23T08:13:55.814Z,97466.81
2022-12-23T08:17:02.009Z,97465.16
2022-12-23T08:20:10.990Z,97462.88
2022-12-23T08:23:24.559Z,97462.75
2022-12-23T08:26:31.606Z,97455.19
2022-12-23T08:29:37.474Z,97457.47
2022-12-23T08:32:44.096Z,97450.47
2022-12-23T08:35:50.557Z,97447.38
2022-12-23T08:39:02.995Z,97453.06
2022-12-23T08:42:08.998Z,97451.28
2022-12-23T08:45:17.245Z,97455.88
2022-12-23T08:48:23.161Z,97458.13
2022-12-23T08:51:31.286Z,97465.59
2022-12-23T08:54:39.703Z,97451.28
2022-12-23T08:57:46.242Z,97449.78
2022-12-23T09:00:52.255Z,97442.63
2022-12-23T09:03:59.605Z,97442.28
2022-12-23T09:07:06.210Z,97431.50
2022-12-23T09:10:15.423Z,97431.50
2022-12-23T09:13:30.840Z,97432.81
2022-12-23T09:16:42.250Z,97427.13
2022-12-23T09:19:52.723Z,97428.41
2022-12-23T09:22:59.867Z,97416.97
2022-12-23T09:26:09.950Z,97411.75
2022-12-23T09:29:16.666Z,97406.97
2022-12-23T09:32:22.415Z,97408.41
2022-12-23T09:35:29.157Z,97397.53
2022-12-23T09:38:36.325Z,97401.66
2022-12-23T09:42:09.257Z,97392.53
2022-12-23T09:45:44.310Z,97393.19
2022-12-23T09:49:05.662Z,97391.25
2022-12-23T09:52:26.883Z,97393.13
2022-12-23T09:55:49.175Z,97386.09
2022-12-23T09:59:15.412Z,97382.91
2022-12-23T10:02:48.299Z,97382.97
2022-12-23T10:06:11.525Z,97363.50
2022-12-23T10:09:21.780Z,97359.84
2022-12-23T10:12:41.358Z,97363.09
2022-12-23T10:15:55.463Z,97365.59
2022-12-23T10:19:10.476Z,97367.81
2022-12-23T10:22:27.453Z,97366.03
2022-12-23T10:25:53.649Z,97359.56
2022-12-23T10:29:19.222Z,97362.00
2022-12-23T10:32:52.372Z,97356.03
2022-12-23T10:36:15.753Z,97362.44
2022-12-23T10:39:41.836Z,97363.91
2022-12-23T10:43:06.340Z,97364.19
2022-12-23T10:46:29.458Z,97360.47
2022-12-23T10:50:04.711Z,97359.66
2022-12-23T10:53:27.415Z,97349.47
2022-12-23T10:56:35.772Z,97338.91
2022-12-23T10:59:41.768Z,97349.38
2022-12-23T11:03:15.394Z,97354.88
2022-12-23T11:06:24.880Z,97359.22
2022-12-23T11:09:42.764Z,97360.09
2022-12-23T11:12:52.295Z,97364.69
2022-12-23T11:16:19.948Z,97360.38
2022-12-23T11:19:25.904Z,97368.94
2022-12-23T11:34:54.996Z,97353.75
2022-12-23T11:38:24.633Z,97354.47
2022-12-23T11:41:38.173Z,97354.94
2022-12-23T11:44:51.698Z,97356.84
2022-12-23T11:47:59.285Z,97351.16
2022-12-23T11:51:07.710Z,97352.00
2022-12-23T11:54:23.561Z,97354.06
2022-12-23T11:57:45.315Z,97352.50
2022-12-23T12:00:59.460Z,97354.84
2022-12-23T12:04:12.184Z,97349.00
2022-12-23T12:07:22.127Z,97349.97
2022-12-23T12:10:37.565Z,97357.63
2022-12-23T12:13:48.189Z,97352.88
2022-12-23T12:17:06.898Z,97349.63
2022-12-23T12:20:29.294Z,97347.88
2022-12-23T12:23:47.154Z,97356.91
2022-12-23T12:27:04.934Z,97359.94
2022-12-23T12:30:21.386Z,97361.94
2022-12-23T12:33:38.852Z,97343.44
2022-12-23T12:36:58.315Z,97354.34
2022-12-23T12:40:11.258Z,97363.00
2022-12-23T12:43:32.686Z,97357.53
2022-12-23T12:46:49.029Z,97353.56
2022-12-23T12:50:05.147Z,97359.94
2022-12-23T12:53:21.878Z,97374.19
2022-12-23T12:56:38.016Z,97368.41
2022-12-23T12:59:52.156Z,97370.38
2022-12-23T13:03:41.120Z,97373.16
2022-12-23T13:07:10.585Z,97382.78
2022-12-23T13:10:41.346Z,97391.59
2022-12-23T13:14:05.108Z,97386.16
2022-12-23T13:17:26.661Z,97389.06
2022-12-23T13:20:45.292Z,97383.44
2022-12-23T13:24:04.377Z,97370.44
2022-12-23T13:27:19.660Z,97379.88
2022-12-23T13:30:35.099Z,97388.34
2022-12-23T13:34:01.196Z,97393.16
2022-12-23T13:37:27.755Z,97404.94
2022-12-23T13:40:47.563Z,97405.16
2022-12-23T13:44:02.299Z,97408.63
2022-12-23T13:47:26.367Z,97415.88
2022-12-23T13:50:47.810Z,97416.97
2022-12-23T13:54:14.865Z,97423.00
2022-12-23T13:57:48.270Z,97418.47
2022-12-23T14:01:22.249Z,97415.88
2022-12-23T14:04:39.670Z,97410.81
2022-12-23T14:07:48.480Z,97408.84
2022-12-23T14:11:00.393Z,97418.75
2022-12-23T14:14:17.885Z,97421.72
2022-12-23T14:17:40.211Z,97406.78
2022-12-23T14:20:58.863Z,97417.94
2022-12-23T14:24:48.506Z,97422.69
2022-12-23T14:28:16.373Z,97426.47
2022-12-23T14:31:46.410Z,97425.53
2022-12-23T14:35:23.148Z,97424.38
2022-12-23T14:38:33.923Z,97426.69
2022-12-23T14:41:52.777Z,97429.03
2022-12-23T14:45:36.845Z,97418.75
2022-12-23T14:49:38.195Z,97425.44
2022-12-23T14:53:01.741Z,97432.75
2022-12-23T14:56:26.478Z,97424.22
2022-12-23T14:59:51.542Z,97430.78
2022-12-23T15:03:03.659Z,97432.41
2022-12-23T15:06:21.147Z,97432.09
2022-12-23T15:09:31.760Z,97428.25
2022-12-23T15:12:43.170Z,97433.47
2022-12-23T15:16:02.005Z,97434.75
2022-12-23T15:19:24.049Z,97434.28
2022-12-23T15:22:35.487Z,97443.94
2022-12-23T15:25:48.871Z,97445.13
2022-12-23T15:28:54.754Z,97436.81
2022-12-23T15:32:05.785Z,97444.31
2022-12-23T15:35:26.372Z,97441.38
2022-12-23T15:38:40.278Z,97437.13
2022-12-23T15:41:49.445Z,97426.38
2022-12-23T15:44:57.251Z,97437.94
2022-12-23T15:48:08.584Z,97438.41
2022-12-23T15:51:49.515Z,97437.44
2022-12-23T15:55:03.911Z,97431.06
2022-12-23T15:58:11.273Z,97441.84
2022-12-23T16:01:22.220Z,97433.50
2022-12-23T16:04:33.130Z,97422.25
2022-12-23T16:07:44.462Z,97429.91
2022-12-23T16:11:06.444Z,97425.66
2022-12-23T16:14:40.539Z,97425.16
2022-12-23T16:17:47.136Z,97439.34
2022-12-23T16:21:00.660Z,97433.66
2022-12-23T16:24:12.527Z,97432.19
2022-12-23T16:27:22.070Z,97429.09
2022-12-23T16:30:35.774Z,97419.47
2022-12-23T16:33:47.685Z,97424.84
2022-12-23T16:36:56.789Z,97416.00
2022-12-23T16:40:05.946Z,97408.69
2022-12-23T16:43:13.334Z,97407.38
2022-12-23T16:46:23.074Z,97409.66
2022-12-23T16:49:34.739Z,97410.63
2022-12-23T16:52:43.654Z,97401.19
2022-12-23T16:55:55.350Z,97409.81
2022-12-23T16:59:04.857Z,97409.19
2022-12-23T17:02:28.271Z,97394.41
2022-12-23T17:05:34.228Z,97407.41
2022-12-23T17:08:43.556Z,97400.56
2022-12-23T17:11:53.884Z,97403.81
2022-12-23T17:15:01.949Z,97413.63
2022-12-23T17:18:15.939Z,97415.06
2022-12-23T17:21:27.854Z,97412.97
2022-12-23T17:24:36.143Z,97412.63
2022-12-23T17:27:45.578Z,97415.19
2022-12-23T17:30:58.071Z,97422.56
2022-12-23T17:34:11.799Z,97431.50
2022-12-23T17:37:19.761Z,97430.84
2022-12-23T17:40:28.952Z,97432.81
2022-12-23T17:43:34.655Z,97427.56
2022-12-23T17:46:41.112Z,97429.09
2022-12-23T17:49:48.944Z,97430.66
2022-12-23T17:52:56.115Z,97434.38
2022-12-23T17:56:04.317Z,97432.59
2022-12-23T17:59:10.921Z,97436.34
2022-12-23T18:02:32.948Z,97426.47
2022-12-23T18:05:39.528Z,97442.09
2022-12-23T18:08:45.435Z,97439.94
2022-12-23T18:11:56.231Z,97433.88
2022-12-23T18:15:02.347Z,97446.94
2022-12-23T18:18:26.056Z,97438.94
2022-12-23T18:21:35.689Z,97436.16
2022-12-23T18:24:42.158Z,97448.16
2022-12-23T18:27:52.529Z,97451.09
2022-12-23T18:31:01.282Z,97450.94
2022-12-23T18:34:07.105Z,97456.28
2022-12-23T18:37:14.480Z,97455.66
2022-12-23T18:40:32.432Z,97441.50
2022-12-23T18:43:42.129Z,97436.78
2022-12-23T18:46:50.994Z,97444.97
2022-12-23T18:49:58.054Z,97436.97
2022-12-23T18:53:04.994Z,97436.63
2022-12-23T18:56:21.160Z,97443.47
2022-12-23T18:59:31.791Z,97439.06
2022-12-23T19:02:38.705Z,97441.16
2022-12-23T19:05:44.329Z,97436.91
2022-12-23T19:08:51.402Z,97440.66
2022-12-23T19:11:58.125Z,97445.34
2022-12-23T19:15:10.930Z,97445.19
2022-12-23T19:18:18.793Z,97440.28
2022-12-23T19:21:28.820Z,97433.50
2022-12-23T19:24:36.532Z,97436.91
2022-12-23T19:27:47.770Z,97433.97
2022-12-23T19:30:56.871Z,97436.41
2022-12-23T19:34:03.991Z,97440.75
2022-12-23T19:37:14.401Z,97426.03
2022-12-23T19:40:24.550Z,97432.81
2022-12-23T19:43:30.445Z,97437.19
2022-12-23T19:46:40.029Z,97432.50
2022-12-23T19:49:51.924Z,97445.09
2022-12-23T19:53:01.147Z,97447.22
2022-12-23T19:56:11.146Z,97427.22
2022-12-23T19:59:19.081Z,97438.88
2022-12-23T20:02:28.450Z,97440.34
2022-12-23T20:05:37.393Z,97418.44
2022-12-23T20:08:44.067Z,97425.25
2022-12-23T20:11:53.240Z,97419.31
2022-12-23T20:14:59.681Z,97407.88
2022-12-23T20:18:12.299Z,97373.03
2022-12-23T20:21:20.168Z,97390.75
2022-12-23T20:24:27.013Z,97395.47
2022-12-23T20:27:33.910Z,97376.38
2022-12-23T20:30:42.709Z,97385.31
2022-12-23T20:33:53.895Z,97380.94
2022-12-23T20:37:04.816Z,97376.38
2022-12-23T20:40:17.776Z,97380.69
2022-12-23T20:43:24.404Z,97380.38
2022-12-23T20:46:30.402Z,97373.44
2022-12-23T20:49:40.862Z,97380.41
2022-12-23T20:52:47.225Z,97373.03
2022-12-23T20:56:02.795Z,97361.81
2022-12-23T20:59:08.485Z,97362.94
2022-12-23T21:02:16.577Z,97369.97
2022-12-23T21:05:25.063Z,97357.06
2022-12-23T21:08:31.750Z,97357.06
2022-12-23T21:11:41.536Z,97351.38
2022-12-23T21:14:48.099Z,97351.78
2022-12-23T21:17:53.971Z,97358.28
2022-12-23T21:21:11.302Z,97362.84
2022-12-23T21:24:20.952Z,97357.94
2022-12-23T21:27:27.801Z,97353.81
2022-12-23T21:30:37.806Z,97340.94
2022-12-23T21:33:48.436Z,97352.25
2022-12-23T21:36:56.694Z,97355.22
2022-12-23T21:40:03.843Z,97347.59
2022-12-23T21:43:09.499Z,97344.06
2022-12-23T21:46:23.216Z,97352.38
2022-12-23T21:49:28.812Z,97333.72
2022-12-23T21:52:40.663Z,97347.88
2022-12-23T21:55:46.708Z,97339.03
2022-12-23T21:58:54.004Z,97340.44
2022-12-23T22:02:01.477Z,97317.97
2022-12-23T22:05:10.391Z,97336.72
2022-12-23T22:08:22.846Z,97335.84
2022-12-23T22:11:34.475Z,97329.81
2022-12-23T22:14:40.662Z,97330.41
2022-12-23T22:17:47.096Z,97314.25
2022-12-23T22:20:53.185Z,97332.28
2022-12-23T22:24:04.299Z,97330.69
2022-12-23T22:27:10.397Z,97326.44
2022-12-23T22:30:18.033Z,97326.81
2022-12-23T22:33:25.217Z,97315.19
2022-12-23T22:36:32.940Z,97327.53
2022-12-23T22:39:44.138Z,97319.16
2022-12-23T22:42:50.911Z,97327.28
2022-12-23T22:45:59.881Z,97317.09
2022-12-23T22:49:07.391Z,97319.19
2022-12-23T22:52:13.279Z,97318.19
2022-12-23T22:55:26.316Z,97314.22
2022-12-23T22:58:34.633Z,97320.41
2022-12-23T23:01:41.385Z,97314.13
2022-12-23T23:04:50.569Z,97316.44
2022-12-23T23:07:57.330Z,97321.84
2022-12-23T23:11:08.809Z,97317.88
2022-12-23T23:14:16.454Z,97306.16
2022-12-23T23:17:22.766Z,97323.16
2022-12-23T23:20:29.321Z,97325.63
2022-12-23T23:23:35.156Z,97318.78
2022-12-23T23:26:44.607Z,97305.69
2022-12-23T23:29:50.401Z,97304.25
2022-12-23T23:32:56.974Z,97303.38
2022-12-23T23:36:03.208Z,97292.97
2022-12-23T23:39:09.805Z,97295.38
2022-12-23T23:42:18.286Z,97285.88
2022-12-23T23:45:24.764Z,97276.59
2022-12-23T23:48:33.299Z,97265.75
2022-12-23T23:51:40.432Z,97261.25
2022-12-23T23:54:46.475Z,97264.44
2022-12-23T23:57:55.677Z,97269.78
